sensor_id;sensor_type;location;lat;lon;timestamp;P1;durP1;ratioP1;P2;durP2;ratioP2
37483;SDS011;23337;52.212;9.926;2023-04-01T00:01:31;3.67;;;1.00;;
37483;SDS011;23337;52.212;9.926;2023-04-01T00:03:57;1.97;;;1.07;;
37483;SDS011;23337;52.212;9.926;2023-04-01T00:06:24;2.13;;;0.80;;
37483;SDS011;23337;52.212;9.926;2023-04-01T00:08:50;4.83;;;1.03;;
37483;SDS011;23337;52.212;9.926;2023-04-01T00:11:17;2.77;;;1.43;;
37483;SDS011;23337;52.212;9.926;2023-04-01T00:13:43;5.10;;;0.90;;
37483;SDS011;23337;52.212;9.926;2023-04-01T00:16:09;4.50;;;0.87;;
37483;SDS011;23337;52.212;9.926;2023-04-01T00:18:35;4.43;;;1.30;;
37483;SDS011;23337;52.212;9.926;2023-04-01T00:21:01;3.33;;;0.93;;
37483;SDS011;23337;52.212;9.926;2023-04-01T00:23:27;2.63;;;0.50;;
37483;SDS011;23337;52.212;9.926;2023-04-01T00:25:53;2.70;;;0.80;;
37483;SDS011;23337;52.212;9.926;2023-04-01T00:28:19;2.23;;;1.53;;
37483;SDS011;23337;52.212;9.926;2023-04-01T00:30:45;4.00;;;0.87;;
37483;SDS011;23337;52.212;9.926;2023-04-01T00:33:12;1.90;;;0.70;;
37483;SDS011;23337;52.212;9.926;2023-04-01T00:35:38;0.73;;;0.53;;
37483;SDS011;23337;52.212;9.926;2023-04-01T00:38:04;5.13;;;0.60;;
37483;SDS011;23337;52.212;9.926;2023-04-01T00:40:35;1.40;;;0.50;;
37483;SDS011;23337;52.212;9.926;2023-04-01T00:43:02;2.53;;;0.40;;
37483;SDS011;23337;52.212;9.926;2023-04-01T00:45:30;2.90;;;0.60;;
37483;SDS011;23337;52.212;9.926;2023-04-01T00:47:56;3.37;;;0.50;;
37483;SDS011;23337;52.212;9.926;2023-04-01T00:50:24;2.53;;;0.60;;
37483;SDS011;23337;52.212;9.926;2023-04-01T00:52:52;1.70;;;0.47;;
37483;SDS011;23337;52.212;9.926;2023-04-01T00:55:18;2.63;;;0.50;;
37483;SDS011;23337;52.212;9.926;2023-04-01T00:57:45;2.33;;;0.50;;
37483;SDS011;23337;52.212;9.926;2023-04-01T01:00:12;2.50;;;0.50;;
37483;SDS011;23337;52.212;9.926;2023-04-01T01:02:41;1.53;;;0.40;;
37483;SDS011;23337;52.212;9.926;2023-04-01T01:05:07;1.37;;;0.40;;
37483;SDS011;23337;52.212;9.926;2023-04-01T01:10:23;1.30;;;0.40;;
37483;SDS011;23337;52.212;9.926;2023-04-01T01:13:04;1.23;;;0.37;;
37483;SDS011;23337;52.212;9.926;2023-04-01T01:15:46;1.37;;;0.50;;
37483;SDS011;23337;52.212;9.926;2023-04-01T01:20:56;2.53;;;0.63;;
37483;SDS011;23337;52.212;9.926;2023-04-01T01:23:34;0.90;;;0.40;;
37483;SDS011;23337;52.212;9.926;2023-04-01T01:26:21;1.27;;;0.40;;
37483;SDS011;23337;52.212;9.926;2023-04-01T01:29:52;1.53;;;0.40;;
37483;SDS011;23337;52.212;9.926;2023-04-01T01:31:58;2.17;;;0.47;;
37483;SDS011;23337;52.212;9.926;2023-04-01T01:36:55;2.23;;;0.50;;
37483;SDS011;23337;52.212;9.926;2023-04-01T01:39:22;1.63;;;0.50;;
37483;SDS011;23337;52.212;9.926;2023-04-01T01:41:52;0.37;;;0.10;;
37483;SDS011;23337;52.212;9.926;2023-04-01T01:44:19;1.70;;;0.57;;
37483;SDS011;23337;52.212;9.926;2023-04-01T01:46:46;2.43;;;0.30;;
37483;SDS011;23337;52.212;9.926;2023-04-01T01:49:13;1.80;;;0.33;;
37483;SDS011;23337;52.212;9.926;2023-04-01T01:51:40;3.23;;;0.43;;
37483;SDS011;23337;52.212;9.926;2023-04-01T01:54:11;1.23;;;0.40;;
37483;SDS011;23337;52.212;9.926;2023-04-01T01:56:37;2.97;;;1.23;;
37483;SDS011;23337;52.212;9.926;2023-04-01T01:59:05;1.13;;;0.20;;
37483;SDS011;23337;52.212;9.926;2023-04-01T02:01:35;2.20;;;0.50;;
37483;SDS011;23337;52.212;9.926;2023-04-01T02:04:03;1.53;;;0.30;;
37483;SDS011;23337;52.212;9.926;2023-04-01T02:06:30;0.87;;;0.30;;
37483;SDS011;23337;52.212;9.926;2023-04-01T02:09:04;3.60;;;0.40;;
37483;SDS011;23337;52.212;9.926;2023-04-01T02:16:27;1.43;;;0.57;;
37483;SDS011;23337;52.212;9.926;2023-04-01T02:18:55;3.60;;;0.40;;
37483;SDS011;23337;52.212;9.926;2023-04-01T02:21:22;1.87;;;0.40;;
37483;SDS011;23337;52.212;9.926;2023-04-01T02:23:49;1.77;;;0.50;;
37483;SDS011;23337;52.212;9.926;2023-04-01T02:26:16;1.03;;;0.40;;
37483;SDS011;23337;52.212;9.926;2023-04-01T02:28:42;3.93;;;0.60;;
37483;SDS011;23337;52.212;9.926;2023-04-01T02:31:09;2.30;;;0.63;;
37483;SDS011;23337;52.212;9.926;2023-04-01T02:33:36;0.50;;;0.50;;
37483;SDS011;23337;52.212;9.926;2023-04-01T02:36:03;2.07;;;0.50;;
37483;SDS011;23337;52.212;9.926;2023-04-01T02:38:29;0.83;;;0.40;;
37483;SDS011;23337;52.212;9.926;2023-04-01T02:40:59;0.40;;;0.33;;
37483;SDS011;23337;52.212;9.926;2023-04-01T02:43:25;1.37;;;0.43;;
37483;SDS011;23337;52.212;9.926;2023-04-01T02:45:52;1.13;;;0.60;;
37483;SDS011;23337;52.212;9.926;2023-04-01T02:48:18;3.13;;;0.60;;
37483;SDS011;23337;52.212;9.926;2023-04-01T02:50:44;1.10;;;0.40;;
37483;SDS011;23337;52.212;9.926;2023-04-01T02:53:09;2.43;;;0.60;;
37483;SDS011;23337;52.212;9.926;2023-04-01T02:55:36;2.77;;;0.70;;
37483;SDS011;23337;52.212;9.926;2023-04-01T02:58:02;1.33;;;0.57;;
37483;SDS011;23337;52.212;9.926;2023-04-01T03:00:28;1.47;;;0.50;;
37483;SDS011;23337;52.212;9.926;2023-04-01T03:02:54;2.53;;;0.63;;
37483;SDS011;23337;52.212;9.926;2023-04-01T03:05:21;1.83;;;0.53;;
37483;SDS011;23337;52.212;9.926;2023-04-01T03:07:47;2.03;;;0.40;;
37483;SDS011;23337;52.212;9.926;2023-04-01T03:10:13;1.60;;;0.50;;
37483;SDS011;23337;52.212;9.926;2023-04-01T03:12:39;2.73;;;0.60;;
37483;SDS011;23337;52.212;9.926;2023-04-01T03:15:05;3.27;;;1.20;;
37483;SDS011;23337;52.212;9.926;2023-04-01T03:17:31;2.63;;;0.67;;
37483;SDS011;23337;52.212;9.926;2023-04-01T03:19:57;1.23;;;0.67;;
37483;SDS011;23337;52.212;9.926;2023-04-01T03:22:23;1.17;;;0.53;;
37483;SDS011;23337;52.212;9.926;2023-04-01T03:24:49;2.13;;;0.60;;
37483;SDS011;23337;52.212;9.926;2023-04-01T03:27:15;0.73;;;0.57;;
37483;SDS011;23337;52.212;9.926;2023-04-01T03:29:41;1.93;;;0.90;;
37483;SDS011;23337;52.212;9.926;2023-04-01T03:32:07;1.97;;;0.80;;
37483;SDS011;23337;52.212;9.926;2023-04-01T03:34:33;1.77;;;1.00;;
37483;SDS011;23337;52.212;9.926;2023-04-01T03:36:59;2.97;;;0.90;;
37483;SDS011;23337;52.212;9.926;2023-04-01T03:39:25;1.13;;;0.50;;
37483;SDS011;23337;52.212;9.926;2023-04-01T03:41:51;1.63;;;0.40;;
37483;SDS011;23337;52.212;9.926;2023-04-01T03:44:17;2.17;;;0.50;;
37483;SDS011;23337;52.212;9.926;2023-04-01T03:46:43;1.27;;;0.50;;
37483;SDS011;23337;52.212;9.926;2023-04-01T03:49:09;3.50;;;0.60;;
37483;SDS011;23337;52.212;9.926;2023-04-01T03:51:37;1.47;;;0.33;;
37483;SDS011;23337;52.212;9.926;2023-04-01T03:54:03;1.53;;;0.40;;
37483;SDS011;23337;52.212;9.926;2023-04-01T03:56:29;1.23;;;0.33;;
37483;SDS011;23337;52.212;9.926;2023-04-01T03:58:55;1.30;;;0.97;;
37483;SDS011;23337;52.212;9.926;2023-04-01T04:01:21;2.77;;;0.60;;
37483;SDS011;23337;52.212;9.926;2023-04-01T04:03:48;1.30;;;0.73;;
37483;SDS011;23337;52.212;9.926;2023-04-01T04:06:14;2.00;;;0.60;;
37483;SDS011;23337;52.212;9.926;2023-04-01T04:08:40;3.53;;;0.60;;
37483;SDS011;23337;52.212;9.926;2023-04-01T04:11:06;2.93;;;0.50;;
37483;SDS011;23337;52.212;9.926;2023-04-01T04:13:33;1.57;;;0.50;;
37483;SDS011;23337;52.212;9.926;2023-04-01T04:15:59;2.73;;;0.77;;
37483;SDS011;23337;52.212;9.926;2023-04-01T04:18:25;2.47;;;0.50;;
37483;SDS011;23337;52.212;9.926;2023-04-01T04:20:51;1.03;;;0.50;;
37483;SDS011;23337;52.212;9.926;2023-04-01T04:23:17;1.10;;;0.43;;
37483;SDS011;23337;52.212;9.926;2023-04-01T04:26:00;2.17;;;0.70;;
37483;SDS011;23337;52.212;9.926;2023-04-01T04:28:26;1.40;;;0.87;;
37483;SDS011;23337;52.212;9.926;2023-04-01T04:30:53;2.60;;;0.70;;
37483;SDS011;23337;52.212;9.926;2023-04-01T04:33:19;1.43;;;0.50;;
37483;SDS011;23337;52.212;9.926;2023-04-01T04:35:45;1.80;;;0.60;;
37483;SDS011;23337;52.212;9.926;2023-04-01T04:38:11;3.77;;;1.30;;
37483;SDS011;23337;52.212;9.926;2023-04-01T04:40:38;1.60;;;0.63;;
37483;SDS011;23337;52.212;9.926;2023-04-01T04:43:04;1.47;;;0.90;;
37483;SDS011;23337;52.212;9.926;2023-04-01T04:45:30;1.20;;;0.60;;
37483;SDS011;23337;52.212;9.926;2023-04-01T04:47:56;1.90;;;0.73;;
37483;SDS011;23337;52.212;9.926;2023-04-01T04:50:22;2.73;;;0.77;;
37483;SDS011;23337;52.212;9.926;2023-04-01T04:52:48;2.57;;;0.50;;
37483;SDS011;23337;52.212;9.926;2023-04-01T04:55:14;3.10;;;0.60;;
37483;SDS011;23337;52.212;9.926;2023-04-01T04:57:40;2.13;;;1.00;;
37483;SDS011;23337;52.212;9.926;2023-04-01T05:00:07;3.27;;;0.80;;
37483;SDS011;23337;52.212;9.926;2023-04-01T05:02:33;2.30;;;0.70;;
37483;SDS011;23337;52.212;9.926;2023-04-01T05:04:59;2.70;;;0.70;;
37483;SDS011;23337;52.212;9.926;2023-04-01T05:07:25;2.13;;;0.70;;
37483;SDS011;23337;52.212;9.926;2023-04-01T05:09:51;1.17;;;0.80;;
37483;SDS011;23337;52.212;9.926;2023-04-01T05:12:17;1.60;;;0.83;;
37483;SDS011;23337;52.212;9.926;2023-04-01T05:14:43;3.13;;;0.60;;
37483;SDS011;23337;52.212;9.926;2023-04-01T05:17:09;2.10;;;0.80;;
37483;SDS011;23337;52.212;9.926;2023-04-01T05:19:35;3.63;;;0.80;;
37483;SDS011;23337;52.212;9.926;2023-04-01T05:22:01;4.03;;;0.83;;
37483;SDS011;23337;52.212;9.926;2023-04-01T05:24:27;2.40;;;1.00;;
37483;SDS011;23337;52.212;9.926;2023-04-01T05:26:53;1.87;;;0.83;;
37483;SDS011;23337;52.212;9.926;2023-04-01T05:29:19;2.10;;;0.60;;
37483;SDS011;23337;52.212;9.926;2023-04-01T05:31:45;2.00;;;0.87;;
37483;SDS011;23337;52.212;9.926;2023-04-01T05:34:11;2.50;;;0.90;;
37483;SDS011;23337;52.212;9.926;2023-04-01T05:36:37;3.00;;;0.87;;
37483;SDS011;23337;52.212;9.926;2023-04-01T05:39:03;2.30;;;0.80;;
37483;SDS011;23337;52.212;9.926;2023-04-01T05:41:29;1.33;;;0.70;;
37483;SDS011;23337;52.212;9.926;2023-04-01T05:43:55;2.17;;;0.90;;
37483;SDS011;23337;52.212;9.926;2023-04-01T05:46:21;2.87;;;0.93;;
37483;SDS011;23337;52.212;9.926;2023-04-01T05:48:47;3.00;;;1.10;;
37483;SDS011;23337;52.212;9.926;2023-04-01T05:51:16;1.80;;;0.80;;
37483;SDS011;23337;52.212;9.926;2023-04-01T05:53:42;1.53;;;0.90;;
37483;SDS011;23337;52.212;9.926;2023-04-01T05:56:08;2.50;;;0.80;;
37483;SDS011;23337;52.212;9.926;2023-04-01T05:58:34;1.10;;;0.90;;
37483;SDS011;23337;52.212;9.926;2023-04-01T06:01:01;2.67;;;0.70;;
37483;SDS011;23337;52.212;9.926;2023-04-01T06:03:27;1.43;;;0.80;;
37483;SDS011;23337;52.212;9.926;2023-04-01T06:05:53;1.80;;;0.73;;
37483;SDS011;23337;52.212;9.926;2023-04-01T06:08:19;3.87;;;1.07;;
37483;SDS011;23337;52.212;9.926;2023-04-01T06:10:52;2.90;;;0.70;;
37483;SDS011;23337;52.212;9.926;2023-04-01T06:16:13;3.10;;;1.07;;
37483;SDS011;23337;52.212;9.926;2023-04-01T06:23:46;1.60;;;0.83;;
37483;SDS011;23337;52.212;9.926;2023-04-01T06:31:43;2.03;;;1.00;;
37483;SDS011;23337;52.212;9.926;2023-04-01T06:36:50;2.07;;;0.60;;
37483;SDS011;23337;52.212;9.926;2023-04-01T06:52:22;4.13;;;1.30;;
37483;SDS011;23337;52.212;9.926;2023-04-01T06:54:55;1.60;;;0.67;;
37483;SDS011;23337;52.212;9.926;2023-04-01T06:57:36;1.37;;;0.90;;
37483;SDS011;23337;52.212;9.926;2023-04-01T07:00:10;4.57;;;0.70;;
37483;SDS011;23337;52.212;9.926;2023-04-01T07:02:39;1.83;;;0.80;;
37483;SDS011;23337;52.212;9.926;2023-04-01T07:05:07;1.73;;;0.63;;
37483;SDS011;23337;52.212;9.926;2023-04-01T07:10:00;2.33;;;0.90;;
37483;SDS011;23337;52.212;9.926;2023-04-01T07:15:00;3.47;;;0.70;;
37483;SDS011;23337;52.212;9.926;2023-04-01T07:17:27;3.60;;;0.70;;
37483;SDS011;23337;52.212;9.926;2023-04-01T07:20:02;1.80;;;0.90;;
37483;SDS011;23337;52.212;9.926;2023-04-01T07:23:04;1.80;;;0.67;;
37483;SDS011;23337;52.212;9.926;2023-04-01T07:25:24;1.03;;;0.50;;
37483;SDS011;23337;52.212;9.926;2023-04-01T07:28:04;1.10;;;0.43;;
37483;SDS011;23337;52.212;9.926;2023-04-01T07:33:16;2.17;;;0.70;;
37483;SDS011;23337;52.212;9.926;2023-04-01T07:35:46;5.97;;;0.83;;
37483;SDS011;23337;52.212;9.926;2023-04-01T07:53:52;0.93;;;0.50;;
37483;SDS011;23337;52.212;9.926;2023-04-01T07:56:36;2.43;;;0.43;;
37483;SDS011;23337;52.212;9.926;2023-04-01T07:59:10;1.20;;;0.50;;
37483;SDS011;23337;52.212;9.926;2023-04-01T08:01:48;1.23;;;0.50;;
37483;SDS011;23337;52.212;9.926;2023-04-01T08:04:22;3.27;;;0.53;;
37483;SDS011;23337;52.212;9.926;2023-04-01T08:22:37;2.03;;;0.50;;
37483;SDS011;23337;52.212;9.926;2023-04-01T08:25:06;1.10;;;0.30;;
37483;SDS011;23337;52.212;9.926;2023-04-01T08:27:35;1.10;;;0.30;;
37483;SDS011;23337;52.212;9.926;2023-04-01T08:30:17;2.17;;;0.43;;
37483;SDS011;23337;52.212;9.926;2023-04-01T08:32:57;1.77;;;0.43;;
37483;SDS011;23337;52.212;9.926;2023-04-01T08:35:31;0.90;;;0.50;;
37483;SDS011;23337;52.212;9.926;2023-04-01T08:38:01;1.00;;;0.47;;
37483;SDS011;23337;52.212;9.926;2023-04-01T08:43:36;1.40;;;0.40;;
37483;SDS011;23337;52.212;9.926;2023-04-01T08:48:48;1.97;;;0.50;;
37483;SDS011;23337;52.212;9.926;2023-04-01T08:52:07;0.60;;;0.30;;
37483;SDS011;23337;52.212;9.926;2023-04-01T08:56:59;1.27;;;0.40;;
37483;SDS011;23337;52.212;9.926;2023-04-01T08:59:38;1.13;;;0.30;;
37483;SDS011;23337;52.212;9.926;2023-04-01T09:17:28;1.63;;;0.30;;
37483;SDS011;23337;52.212;9.926;2023-04-01T09:25:30;1.80;;;0.60;;
37483;SDS011;23337;52.212;9.926;2023-04-01T09:28:05;0.63;;;0.40;;
37483;SDS011;23337;52.212;9.926;2023-04-01T09:33:29;0.73;;;0.30;;
37483;SDS011;23337;52.212;9.926;2023-04-01T09:38:54;0.80;;;0.40;;
37483;SDS011;23337;52.212;9.926;2023-04-01T09:41:29;2.20;;;0.50;;
37483;SDS011;23337;52.212;9.926;2023-04-01T09:44:13;1.13;;;0.47;;
37483;SDS011;23337;52.212;9.926;2023-04-01T09:49:26;1.30;;;0.40;;
37483;SDS011;23337;52.212;9.926;2023-04-01T09:54:49;0.70;;;0.30;;
37483;SDS011;23337;52.212;9.926;2023-04-01T09:57:37;0.83;;;0.40;;
37483;SDS011;23337;52.212;9.926;2023-04-01T10:33:54;0.97;;;0.40;;
37483;SDS011;23337;52.212;9.926;2023-04-01T10:44:12;0.70;;;0.20;;
37483;SDS011;23337;52.212;9.926;2023-04-01T10:54:58;1.13;;;0.40;;
37483;SDS011;23337;52.212;9.926;2023-04-01T10:57:47;1.80;;;0.43;;
37483;SDS011;23337;52.212;9.926;2023-04-01T11:08:08;1.60;;;0.50;;
37483;SDS011;23337;52.212;9.926;2023-04-01T11:30:56;1.23;;;0.50;;
37483;SDS011;23337;52.212;9.926;2023-04-01T11:33:44;1.87;;;0.50;;
37483;SDS011;23337;52.212;9.926;2023-04-01T11:36:57;1.00;;;0.50;;
37483;SDS011;23337;52.212;9.926;2023-04-01T11:39:10;0.93;;;0.60;;
37483;SDS011;23337;52.212;9.926;2023-04-01T11:44:20;1.37;;;0.60;;
37483;SDS011;23337;52.212;9.926;2023-04-01T11:46:52;1.87;;;0.60;;
37483;SDS011;23337;52.212;9.926;2023-04-01T11:51:57;1.10;;;0.30;;
37483;SDS011;23337;52.212;9.926;2023-04-01T11:59:40;1.07;;;0.40;;
37483;SDS011;23337;52.212;9.926;2023-04-01T12:02:11;2.30;;;0.40;;
37483;SDS011;23337;52.212;9.926;2023-04-01T12:04:51;1.17;;;0.57;;
37483;SDS011;23337;52.212;9.926;2023-04-01T12:07:24;2.00;;;0.53;;
37483;SDS011;23337;52.212;9.926;2023-04-01T12:10:06;0.67;;;0.40;;
37483;SDS011;23337;52.212;9.926;2023-04-01T12:17:54;0.90;;;0.43;;
37483;SDS011;23337;52.212;9.926;2023-04-01T12:26:00;1.90;;;0.40;;
37483;SDS011;23337;52.212;9.926;2023-04-01T12:33:41;0.83;;;0.20;;
37483;SDS011;23337;52.212;9.926;2023-04-01T12:36:13;1.00;;;0.37;;
37483;SDS011;23337;52.212;9.926;2023-04-01T12:44:12;0.50;;;0.30;;
37483;SDS011;23337;52.212;9.926;2023-04-01T12:46:47;1.60;;;0.37;;
37483;SDS011;23337;52.212;9.926;2023-04-01T12:51:57;1.23;;;0.40;;
37483;SDS011;23337;52.212;9.926;2023-04-01T13:07:26;0.57;;;0.30;;
37483;SDS011;23337;52.212;9.926;2023-04-01T13:10:20;1.33;;;0.40;;
37483;SDS011;23337;52.212;9.926;2023-04-01T13:15:22;1.77;;;0.53;;
37483;SDS011;23337;52.212;9.926;2023-04-01T13:20:19;1.43;;;0.90;;
37483;SDS011;23337;52.212;9.926;2023-04-01T13:28:47;1.20;;;0.87;;
37483;SDS011;23337;52.212;9.926;2023-04-01T13:36:33;1.00;;;0.90;;
37483;SDS011;23337;52.212;9.926;2023-04-01T13:41:55;3.90;;;1.70;;
37483;SDS011;23337;52.212;9.926;2023-04-01T13:49:59;1.40;;;1.30;;
37483;SDS011;23337;52.212;9.926;2023-04-01T14:00:25;1.43;;;0.40;;
37483;SDS011;23337;52.212;9.926;2023-04-01T14:26:26;3.07;;;1.20;;
37483;SDS011;23337;52.212;9.926;2023-04-01T14:31:29;1.90;;;1.20;;
37483;SDS011;23337;52.212;9.926;2023-04-01T14:36:28;2.20;;;1.40;;
37483;SDS011;23337;52.212;9.926;2023-04-01T14:41:59;2.17;;;1.47;;
37483;SDS011;23337;52.212;9.926;2023-04-01T14:44:22;1.80;;;1.30;;
37483;SDS011;23337;52.212;9.926;2023-04-01T14:47:15;1.47;;;1.33;;
37483;SDS011;23337;52.212;9.926;2023-04-01T14:49:48;1.90;;;1.23;;
37483;SDS011;23337;52.212;9.926;2023-04-01T14:52:21;1.33;;;1.10;;
37483;SDS011;23337;52.212;9.926;2023-04-01T14:54:49;1.60;;;1.30;;
37483;SDS011;23337;52.212;9.926;2023-04-01T14:57:23;1.53;;;1.37;;
37483;SDS011;23337;52.212;9.926;2023-04-01T14:59:54;1.37;;;1.03;;
37483;SDS011;23337;52.212;9.926;2023-04-01T15:17:40;1.70;;;1.60;;
37483;SDS011;23337;52.212;9.926;2023-04-01T15:30:56;3.20;;;2.40;;
37483;SDS011;23337;52.212;9.926;2023-04-01T15:36:12;3.20;;;1.60;;
37483;SDS011;23337;52.212;9.926;2023-04-01T15:41:14;1.10;;;0.97;;
37483;SDS011;23337;52.212;9.926;2023-04-01T15:43:42;1.80;;;1.20;;
37483;SDS011;23337;52.212;9.926;2023-04-01T15:54:04;1.30;;;1.20;;
37483;SDS011;23337;52.212;9.926;2023-04-01T16:01:53;1.23;;;1.13;;
37483;SDS011;23337;52.212;9.926;2023-04-01T16:06:53;1.20;;;1.10;;
37483;SDS011;23337;52.212;9.926;2023-04-01T16:12:17;1.40;;;1.30;;
37483;SDS011;23337;52.212;9.926;2023-04-01T16:14:55;2.00;;;1.90;;
37483;SDS011;23337;52.212;9.926;2023-04-01T16:19:56;1.90;;;1.80;;
37483;SDS011;23337;52.212;9.926;2023-04-01T16:22:31;2.10;;;1.90;;
37483;SDS011;23337;52.212;9.926;2023-04-01T16:29:58;1.43;;;1.33;;
37483;SDS011;23337;52.212;9.926;2023-04-01T16:37:39;3.10;;;2.80;;
37483;SDS011;23337;52.212;9.926;2023-04-01T16:40:20;2.57;;;2.37;;
37483;SDS011;23337;52.212;9.926;2023-04-01T16:42:53;2.97;;;2.00;;
37483;SDS011;23337;52.212;9.926;2023-04-01T16:45:32;2.27;;;2.03;;
37483;SDS011;23337;52.212;9.926;2023-04-01T16:48:21;2.70;;;1.97;;
37483;SDS011;23337;52.212;9.926;2023-04-01T16:50:52;2.33;;;1.50;;
37483;SDS011;23337;52.212;9.926;2023-04-01T16:53:24;3.03;;;1.87;;
37483;SDS011;23337;52.212;9.926;2023-04-01T16:58:27;1.70;;;1.30;;
37483;SDS011;23337;52.212;9.926;2023-04-01T17:00:59;3.07;;;1.73;;
37483;SDS011;23337;52.212;9.926;2023-04-01T17:03:28;1.70;;;1.57;;
37483;SDS011;23337;52.212;9.926;2023-04-01T17:11:09;1.47;;;1.00;;
37483;SDS011;23337;52.212;9.926;2023-04-01T17:16:43;1.60;;;1.30;;
37483;SDS011;23337;52.212;9.926;2023-04-01T17:19:24;2.97;;;1.80;;
37483;SDS011;23337;52.212;9.926;2023-04-01T17:27:26;1.83;;;1.00;;
37483;SDS011;23337;52.212;9.926;2023-04-01T17:30:17;1.60;;;1.20;;
37483;SDS011;23337;52.212;9.926;2023-04-01T17:43:27;2.97;;;1.40;;
37483;SDS011;23337;52.212;9.926;2023-04-01T17:46:02;1.97;;;1.30;;
37483;SDS011;23337;52.212;9.926;2023-04-01T17:48:42;1.43;;;1.00;;
37483;SDS011;23337;52.212;9.926;2023-04-01T17:51:19;1.73;;;1.10;;
37483;SDS011;23337;52.212;9.926;2023-04-01T17:56:37;3.90;;;2.63;;
37483;SDS011;23337;52.212;9.926;2023-04-01T17:59:27;3.10;;;1.83;;
37483;SDS011;23337;52.212;9.926;2023-04-01T18:02:00;1.40;;;1.13;;
37483;SDS011;23337;52.212;9.926;2023-04-01T18:09:51;0.70;;;0.70;;
37483;SDS011;23337;52.212;9.926;2023-04-01T18:12:26;1.20;;;0.70;;
37483;SDS011;23337;52.212;9.926;2023-04-01T18:17:43;0.97;;;0.90;;
37483;SDS011;23337;52.212;9.926;2023-04-01T18:22:58;1.10;;;0.93;;
37483;SDS011;23337;52.212;9.926;2023-04-01T18:27:57;1.20;;;1.10;;
37483;SDS011;23337;52.212;9.926;2023-04-01T18:30:30;1.30;;;1.17;;
37483;SDS011;23337;52.212;9.926;2023-04-01T18:33:17;1.97;;;1.03;;
37483;SDS011;23337;52.212;9.926;2023-04-01T18:38:18;1.87;;;1.03;;
37483;SDS011;23337;52.212;9.926;2023-04-01T18:41:10;1.10;;;0.97;;
37483;SDS011;23337;52.212;9.926;2023-04-01T18:43:46;1.67;;;0.77;;
37483;SDS011;23337;52.212;9.926;2023-04-01T18:49:06;2.30;;;1.20;;
37483;SDS011;23337;52.212;9.926;2023-04-01T18:51:44;1.53;;;1.20;;
37483;SDS011;23337;52.212;9.926;2023-04-01T18:54:13;2.10;;;1.27;;
37483;SDS011;23337;52.212;9.926;2023-04-01T18:56:41;0.97;;;0.87;;
37483;SDS011;23337;52.212;9.926;2023-04-01T19:02:01;0.90;;;0.70;;
37483;SDS011;23337;52.212;9.926;2023-04-01T19:04:39;2.20;;;0.90;;
37483;SDS011;23337;52.212;9.926;2023-04-01T19:09:54;1.30;;;1.20;;
37483;SDS011;23337;52.212;9.926;2023-04-01T19:12:28;1.17;;;0.97;;
37483;SDS011;23337;52.212;9.926;2023-04-01T19:20:20;0.73;;;0.67;;
37483;SDS011;23337;52.212;9.926;2023-04-01T19:25:32;1.53;;;0.77;;
37483;SDS011;23337;52.212;9.926;2023-04-01T19:39:14;1.30;;;1.07;;
37483;SDS011;23337;52.212;9.926;2023-04-01T19:51:56;0.70;;;0.60;;
37483;SDS011;23337;52.212;9.926;2023-04-01T19:54:30;1.53;;;0.80;;
37483;SDS011;23337;52.212;9.926;2023-04-01T19:59:41;0.70;;;0.70;;
37483;SDS011;23337;52.212;9.926;2023-04-01T20:04:42;1.40;;;1.30;;
37483;SDS011;23337;52.212;9.926;2023-04-01T20:07:20;1.70;;;0.90;;
37483;SDS011;23337;52.212;9.926;2023-04-01T20:09:50;2.90;;;1.90;;
37483;SDS011;23337;52.212;9.926;2023-04-01T20:14:50;1.37;;;1.00;;
37483;SDS011;23337;52.212;9.926;2023-04-01T20:19:51;1.53;;;1.07;;
37483;SDS011;23337;52.212;9.926;2023-04-01T20:22:24;1.83;;;1.70;;
37483;SDS011;23337;52.212;9.926;2023-04-01T20:24:53;0.97;;;0.97;;
37483;SDS011;23337;52.212;9.926;2023-04-01T20:27:24;1.80;;;1.47;;
37483;SDS011;23337;52.212;9.926;2023-04-01T20:29:56;1.53;;;1.37;;
37483;SDS011;23337;52.212;9.926;2023-04-01T20:32:32;2.00;;;1.10;;
37483;SDS011;23337;52.212;9.926;2023-04-01T20:40:14;1.63;;;1.17;;
37483;SDS011;23337;52.212;9.926;2023-04-01T20:42:47;1.47;;;1.20;;
37483;SDS011;23337;52.212;9.926;2023-04-01T20:45:38;2.60;;;1.17;;
37483;SDS011;23337;52.212;9.926;2023-04-01T20:50:52;1.30;;;1.20;;
37483;SDS011;23337;52.212;9.926;2023-04-01T20:53:29;1.30;;;1.20;;
37483;SDS011;23337;52.212;9.926;2023-04-01T20:58:29;1.53;;;1.33;;
37483;SDS011;23337;52.212;9.926;2023-04-01T21:01:08;1.93;;;1.40;;
37483;SDS011;23337;52.212;9.926;2023-04-01T21:03:43;1.40;;;1.30;;
37483;SDS011;23337;52.212;9.926;2023-04-01T21:09:11;2.80;;;1.20;;
37483;SDS011;23337;52.212;9.926;2023-04-01T21:24:39;2.20;;;1.90;;
37483;SDS011;23337;52.212;9.926;2023-04-01T21:27:13;1.20;;;1.10;;
37483;SDS011;23337;52.212;9.926;2023-04-01T21:37:37;1.60;;;1.50;;
37483;SDS011;23337;52.212;9.926;2023-04-01T21:53:16;2.37;;;1.70;;
37483;SDS011;23337;52.212;9.926;2023-04-01T22:06:17;2.57;;;1.47;;
37483;SDS011;23337;52.212;9.926;2023-04-01T22:11:37;3.27;;;2.07;;
37483;SDS011;23337;52.212;9.926;2023-04-01T22:14:12;2.30;;;1.93;;
37483;SDS011;23337;52.212;9.926;2023-04-01T22:22:14;2.30;;;1.83;;
37483;SDS011;23337;52.212;9.926;2023-04-01T22:32:19;1.90;;;1.53;;
37483;SDS011;23337;52.212;9.926;2023-04-01T22:40:09;2.60;;;1.60;;
37483;SDS011;23337;52.212;9.926;2023-04-01T22:42:45;2.10;;;1.50;;
37483;SDS011;23337;52.212;9.926;2023-04-01T22:50:11;3.07;;;2.10;;
37483;SDS011;23337;52.212;9.926;2023-04-01T22:52:41;3.27;;;1.80;;
37483;SDS011;23337;52.212;9.926;2023-04-01T22:55:13;2.80;;;2.30;;
37483;SDS011;23337;52.212;9.926;2023-04-01T22:57:51;3.40;;;2.40;;
37483;SDS011;23337;52.212;9.926;2023-04-01T23:00:20;4.70;;;2.20;;
37483;SDS011;23337;52.212;9.926;2023-04-01T23:03:00;3.43;;;2.70;;
37483;SDS011;23337;52.212;9.926;2023-04-01T23:05:30;3.40;;;2.33;;
37483;SDS011;23337;52.212;9.926;2023-04-01T23:08:00;3.13;;;2.30;;
37483;SDS011;23337;52.212;9.926;2023-04-01T23:10:29;2.47;;;2.07;;
37483;SDS011;23337;52.212;9.926;2023-04-01T23:12:58;4.13;;;2.33;;
37483;SDS011;23337;52.212;9.926;2023-04-01T23:15:27;3.60;;;2.73;;
37483;SDS011;23337;52.212;9.926;2023-04-01T23:20:24;4.63;;;2.53;;
37483;SDS011;23337;52.212;9.926;2023-04-01T23:25:24;4.57;;;2.43;;
37483;SDS011;23337;52.212;9.926;2023-04-01T23:27:57;3.87;;;2.40;;
37483;SDS011;23337;52.212;9.926;2023-04-01T23:35:45;3.73;;;2.90;;
37483;SDS011;23337;52.212;9.926;2023-04-01T23:38:12;4.13;;;2.97;;
37483;SDS011;23337;52.212;9.926;2023-04-01T23:40:38;3.13;;;2.60;;
37483;SDS011;23337;52.212;9.926;2023-04-01T23:43:12;4.13;;;3.13;;
37483;SDS011;23337;52.212;9.926;2023-04-01T23:45:40;2.87;;;2.53;;
37483;SDS011;23337;52.212;9.926;2023-04-01T23:48:09;4.67;;;3.07;;
37483;SDS011;23337;52.212;9.926;2023-04-01T23:50:36;4.47;;;2.90;;
37483;SDS011;23337;52.212;9.926;2023-04-01T23:53:16;5.77;;;3.40;;
37483;SDS011;23337;52.212;9.926;2023-04-01T23:55:43;4.57;;;3.00;;
